»·PEaware :: SWA3193 KELP-KPHX

SWA3193 :: KELP-KPHX

FLIGHT INFORMATION

Flight Status: Arrived
Operator:
Southwest Airlines
More flights by this operator :: More flights under this callsign
Pilot: Anonymous 34646 (34646)
Aircraft: BOEING 737-700
(B737)
More flights by this aircraft type
Origin: KELP El Paso Intl
United States
Destination: KPHX Phoenix Sky Harbor Intl
United States
More flights between these airports :: More routes between these airports
Route: ATKNN5 ATKNN DRRVR PINNG1
File this flight plan on PilotEdge
Remarks: RMK / SIMBRIEF
Altitude:
(Current/Filed)
34,000ft
Speed:
(Current/Filed)
460kts
Departed: 08-Jun-21 03:29 PM
Arrived: 08-Jun-21 04:28 PM
Distance/Time
Traveled:
300nm/0:59
Distance/Time
To Go:
Arrived

Flight Plot

Page will automatically refresh every two minutes.

Flight plan parsing failed; only flown route is shown


Map Options




Map Legend


Flown Route
Filed Route
Departure Airport
Arrival Airport
Navaid (VOR, NDB)
Fix

Horizontal Profiles

Position Reports

Time Latitude Longitude Heading Altitude Ground
Speed
08-Jun-21 15:01 31.800179 -106.396554 193 3966ft 0kts
08-Jun-21 15:02 31.800179 -106.396554 193 3966ft 0kts
08-Jun-21 15:03 31.800179 -106.396554 193 3966ft 0kts
08-Jun-21 15:04 31.800179 -106.396554 193 3966ft 0kts
08-Jun-21 15:05 31.800179 -106.396554 193 3966ft 0kts
08-Jun-21 15:06 31.800179 -106.396554 193 3966ft 0kts
08-Jun-21 15:07 31.800179 -106.396554 193 3966ft 0kts
08-Jun-21 15:08 31.800179 -106.396554 193 3966ft 0kts
08-Jun-21 15:09 31.800179 -106.396554 193 3966ft 0kts
08-Jun-21 15:10 31.800179 -106.396554 193 3966ft 0kts
08-Jun-21 15:11 31.800179 -106.396554 193 3966ft 0kts
08-Jun-21 15:12 31.800179 -106.396554 193 3966ft 0kts
08-Jun-21 15:13 31.800761 -106.396391 193 3966ft 2kts
08-Jun-21 15:14 31.800879 -106.396359 192 3966ft 0kts
08-Jun-21 15:15 31.800879 -106.396359 192 3966ft 0kts
08-Jun-21 15:16 31.800879 -106.396359 192 3966ft 0kts
08-Jun-21 15:17 31.800878 -106.396359 192 3966ft 0kts
08-Jun-21 15:18 31.801204 -106.395421 90 3966ft 7kts
08-Jun-21 15:19 31.801175 -106.393197 90 3966ft 6kts
08-Jun-21 15:20 31.800259 -106.389782 94 3966ft 12kts
08-Jun-21 15:21 31.800033 -106.385183 93 3966ft 19kts
08-Jun-21 15:22 31.799815 -106.379456 92 3966ft 16kts
08-Jun-21 15:23 31.799556 -106.372895 91 3966ft 19kts
08-Jun-21 15:24 31.799335 -106.366917 92 3966ft 18kts
08-Jun-21 15:25 31.800023 -106.363783 1 3966ft 0kts
08-Jun-21 15:26 31.800023 -106.363783 1 3966ft 0kts
08-Jun-21 15:27 31.800880 -106.365166 273 3966ft 17kts
08-Jun-21 15:28 31.802517 -106.397023 272 4204ft 156kts
08-Jun-21 15:29 31.786299 -106.447133 236 5710ft 199kts
08-Jun-21 15:30 31.760860 -106.509496 280 7876ft 231kts
08-Jun-21 15:31 31.804416 -106.579627 294 9812ft 289kts
08-Jun-21 15:32 31.822566 -106.676765 274 12124ft 340kts
08-Jun-21 15:33 31.837995 -106.793658 276 14675ft 370kts
08-Jun-21 15:34 31.855104 -106.915509 276 16939ft 384kts
08-Jun-21 15:35 31.873138 -107.040166 276 18539ft 390kts
08-Jun-21 15:36 31.891685 -107.168330 277 20964ft 400kts
08-Jun-21 15:37 31.910280 -107.299040 277 23108ft 409kts
08-Jun-21 15:38 31.928912 -107.431356 278 25151ft 411kts
08-Jun-21 15:39 31.947714 -107.566021 278 26731ft 422kts
08-Jun-21 15:40 31.966811 -107.703933 278 28118ft 433kts
08-Jun-21 15:41 31.986207 -107.845176 278 29383ft 442kts
08-Jun-21 15:42 32.005563 -107.987329 277 31323ft 433kts
08-Jun-21 15:43 32.024191 -108.125298 277 33449ft 419kts
08-Jun-21 15:44 32.042310 -108.260666 276 34097ft 419kts
08-Jun-21 15:45 32.060265 -108.395923 276 34147ft 417kts
08-Jun-21 15:46 32.078001 -108.530644 276 34155ft 417kts
08-Jun-21 15:47 32.095649 -108.665838 276 34148ft 416kts
08-Jun-21 15:48 32.113074 -108.800468 276 34138ft 416kts
08-Jun-21 15:49 32.130544 -108.935392 276 34128ft 417kts
08-Jun-21 15:50 32.147861 -109.070855 275 34117ft 417kts
08-Jun-21 15:51 32.164761 -109.206298 275 34107ft 417kts
08-Jun-21 15:52 32.184898 -109.341163 280 34098ft 420kts
08-Jun-21 15:53 32.214004 -109.474923 280 34091ft 420kts
08-Jun-21 15:54 32.242295 -109.609223 280 34086ft 421kts
08-Jun-21 15:55 32.270740 -109.743699 280 34065ft 422kts
08-Jun-21 15:56 32.298993 -109.877968 280 34066ft 422kts
08-Jun-21 15:57 32.327004 -110.012789 280 34068ft 422kts
08-Jun-21 15:58 32.354737 -110.147194 279 34046ft 421kts
08-Jun-21 15:59 32.382401 -110.282051 279 34024ft 421kts
08-Jun-21 16:00 32.410134 -110.416577 279 34037ft 415kts
08-Jun-21 16:01 32.435460 -110.542076 279 34041ft 383kts
08-Jun-21 16:02 32.459533 -110.662115 278 33898ft 369kts
08-Jun-21 16:03 32.506343 -110.775366 299 31189ft 398kts
08-Jun-21 16:04 32.570081 -110.886633 299 27886ft 414kts
08-Jun-21 16:05 32.632168 -110.994916 299 24511ft 379kts
08-Jun-21 16:06 32.689982 -111.096789 299 21229ft 371kts
08-Jun-21 16:07 32.747806 -111.198856 299 20243ft 368kts
08-Jun-21 16:08 32.804117 -111.297988 299 18874ft 356kts
08-Jun-21 16:09 32.858891 -111.395348 299 17521ft 352kts
08-Jun-21 16:10 32.911665 -111.489244 300 16153ft 326kts
08-Jun-21 16:11 32.967399 -111.572460 304 14862ft 316kts
08-Jun-21 16:12 33.021770 -111.653640 305 13595ft 312kts
08-Jun-21 16:14 33.075408 -111.734185 305 12346ft 307kts
08-Jun-21 16:15 33.128001 -111.813129 305 11125ft 302kts
08-Jun-21 16:16 33.179566 -111.890730 305 9918ft 289kts
08-Jun-21 16:17 33.228762 -111.964997 305 8772ft 279kts
08-Jun-21 16:18 33.275663 -112.035703 306 7673ft 264kts
08-Jun-21 16:19 33.314884 -112.104938 291 7002ft 239kts
08-Jun-21 16:20 33.340581 -112.178093 278 6990ft 236kts
08-Jun-21 16:21 33.342072 -112.254749 267 5848ft 230kts
08-Jun-21 16:22 33.387968 -112.292441 2 4837ft 228kts
08-Jun-21 16:23 33.420592 -112.242194 73 4144ft 188kts
08-Jun-21 16:24 33.429080 -112.179940 92 3611ft 195kts
08-Jun-21 16:25 33.428912 -112.118150 92 2608ft 168kts
08-Jun-21 16:26 33.428871 -112.066810 90 1801ft 147kts
08-Jun-21 16:27 33.428825 -112.018310 91 1144ft 132kts
08-Jun-21 16:28 33.429792 -112.004505 60 1143ft 6kts
08-Jun-21 16:29 33.431141 -112.003311 358 1143ft 12kts
08-Jun-21 16:30 33.432840 -112.002602 91 1143ft 10kts
08-Jun-21 16:31 33.432834 -111.997791 90 1143ft 17kts
08-Jun-21 16:32 33.433910 -111.995386 0 1143ft 3kts
08-Jun-21 16:33 33.434052 -111.994938 90 1143ft 0kts
08-Jun-21 16:34 33.434052 -111.994938 90 1143ft 0kts
08-Jun-21 16:35 33.434052 -111.994938 90 1143ft 0kts

Navigation Log

Ident Type
Flight plan parsing failed, navigation log unavailable